KR-0314 weather

Haeundae I Park Marina Tower 1 Heliport
Busan, Busan Gwang'yeogsi, South Korea

Public forecast

Using degrees Celsius for public forecast. Weather courtesy of forecast.io.

METAR (pilot weather report)

Closest report is Gimhae International Airport, 10.1 nm (18.7 km) W. Retrieved 2019/08/21 04:25 UTC (20 minutes ago):

RKPK 210425Z 18006KT 9000 SCT020 BKN030 29/24 Q1009 RMK CIG030

TAF (pilot weather forecast)

Forecast is more than 12 hours old.

Closest forecast is Gimhae International Airport, 10.1 nm (18.7 km) W. Retrieved 2019/08/20 00:00 UTC (1 day ago):

TAF RKPK 202300Z 2100/2206 03006KT 9999 BKN030 BKN100 TX29/2105Z TN25/2120Z BECMG 2106/2107 18006KT 8000 -RA SCT015 BKN030